sensor_id;sensor_type;location;lat;lon;timestamp;temperature;humidity
54140;DHT22;40046;53.254;5.900;2022-07-29T00:00:02;14.70;99.90
54140;DHT22;40046;53.254;5.900;2022-07-29T00:02:30;14.70;99.90
54140;DHT22;40046;53.254;5.900;2022-07-29T00:04:57;14.70;99.90
54140;DHT22;40046;53.254;5.900;2022-07-29T00:07:24;14.70;99.90
54140;DHT22;40046;53.254;5.900;2022-07-29T00:09:50;14.70;99.90
54140;DHT22;40046;53.254;5.900;2022-07-29T00:12:15;14.70;99.90
54140;DHT22;40046;53.254;5.900;2022-07-29T00:14:41;14.70;99.90
54140;DHT22;40046;53.254;5.900;2022-07-29T00:17:07;14.70;99.90
54140;DHT22;40046;53.254;5.900;2022-07-29T00:19:33;14.70;99.90
54140;DHT22;40046;53.254;5.900;2022-07-29T00:22:00;14.70;99.90
54140;DHT22;40046;53.254;5.900;2022-07-29T00:24:26;14.70;99.90
54140;DHT22;40046;53.254;5.900;2022-07-29T00:26:51;14.70;99.90
54140;DHT22;40046;53.254;5.900;2022-07-29T00:29:17;14.70;99.90
54140;DHT22;40046;53.254;5.900;2022-07-29T00:31:43;14.70;99.90
54140;DHT22;40046;53.254;5.900;2022-07-29T00:34:09;14.70;99.90
54140;DHT22;40046;53.254;5.900;2022-07-29T00:36:55;14.70;99.90
54140;DHT22;40046;53.254;5.900;2022-07-29T00:39:20;14.80;99.90
54140;DHT22;40046;53.254;5.900;2022-07-29T00:41:46;14.80;99.90
54140;DHT22;40046;53.254;5.900;2022-07-29T00:44:12;14.80;99.90
54140;DHT22;40046;53.254;5.900;2022-07-29T00:46:38;14.80;99.90
54140;DHT22;40046;53.254;5.900;2022-07-29T00:49:03;14.80;99.90
54140;DHT22;40046;53.254;5.900;2022-07-29T00:51:30;14.80;99.90
54140;DHT22;40046;53.254;5.900;2022-07-29T00:53:57;14.80;99.90
54140;DHT22;40046;53.254;5.900;2022-07-29T00:56:22;14.80;99.90
54140;DHT22;40046;53.254;5.900;2022-07-29T00:58:50;14.80;99.90
54140;DHT22;40046;53.254;5.900;2022-07-29T01:01:16;14.80;99.90
54140;DHT22;40046;53.254;5.900;2022-07-29T01:03:41;14.80;99.90
54140;DHT22;40046;53.254;5.900;2022-07-29T01:06:07;14.80;99.90
54140;DHT22;40046;53.254;5.900;2022-07-29T01:08:34;14.80;99.90
54140;DHT22;40046;53.254;5.900;2022-07-29T01:11:01;14.80;99.90
54140;DHT22;40046;53.254;5.900;2022-07-29T01:13:27;14.80;99.90
54140;DHT22;40046;53.254;5.900;2022-07-29T01:15:59;14.80;99.90
54140;DHT22;40046;53.254;5.900;2022-07-29T01:18:30;14.80;99.90
54140;DHT22;40046;53.254;5.900;2022-07-29T01:34:25;14.90;99.90
54140;DHT22;40046;53.254;5.900;2022-07-29T01:37:03;14.90;99.90
54140;DHT22;40046;53.254;5.900;2022-07-29T01:39:33;14.90;99.90
54140;DHT22;40046;53.254;5.900;2022-07-29T01:47:29;14.90;99.90
54140;DHT22;40046;53.254;5.900;2022-07-29T01:49:58;14.90;99.90
54140;DHT22;40046;53.254;5.900;2022-07-29T01:52:34;14.90;99.90
54140;DHT22;40046;53.254;5.900;2022-07-29T01:55:09;14.90;99.90
54140;DHT22;40046;53.254;5.900;2022-07-29T01:57:37;15.00;99.90
54140;DHT22;40046;53.254;5.900;2022-07-29T02:00:06;15.00;99.90
54140;DHT22;40046;53.254;5.900;2022-07-29T02:02:43;15.00;99.90
54140;DHT22;40046;53.254;5.900;2022-07-29T02:05:12;15.00;99.90
54140;DHT22;40046;53.254;5.900;2022-07-29T02:07:40;15.00;99.90
54140;DHT22;40046;53.254;5.900;2022-07-29T02:10:07;15.00;99.90
54140;DHT22;40046;53.254;5.900;2022-07-29T02:12:35;15.00;99.90
54140;DHT22;40046;53.254;5.900;2022-07-29T02:15:04;15.10;99.90
54140;DHT22;40046;53.254;5.900;2022-07-29T02:17:34;15.10;99.90
54140;DHT22;40046;53.254;5.900;2022-07-29T02:20:03;15.10;99.90
54140;DHT22;40046;53.254;5.900;2022-07-29T02:22:31;15.00;99.90
54140;DHT22;40046;53.254;5.900;2022-07-29T02:24:59;15.00;99.90
54140;DHT22;40046;53.254;5.900;2022-07-29T02:27:26;15.10;99.90
54140;DHT22;40046;53.254;5.900;2022-07-29T02:29:54;15.10;99.90
54140;DHT22;40046;53.254;5.900;2022-07-29T02:32:22;15.10;99.90
54140;DHT22;40046;53.254;5.900;2022-07-29T02:34:51;15.10;99.90
54140;DHT22;40046;53.254;5.900;2022-07-29T02:37:18;15.10;99.90
54140;DHT22;40046;53.254;5.900;2022-07-29T02:39:45;15.10;99.90
54140;DHT22;40046;53.254;5.900;2022-07-29T02:42:17;15.10;99.90
54140;DHT22;40046;53.254;5.900;2022-07-29T02:44:44;15.10;99.90
54140;DHT22;40046;53.254;5.900;2022-07-29T02:49:49;15.10;99.90
54140;DHT22;40046;53.254;5.900;2022-07-29T02:53:27;15.10;99.90
54140;DHT22;40046;53.254;5.900;2022-07-29T02:55:30;15.20;99.90
54140;DHT22;40046;53.254;5.900;2022-07-29T02:57:58;15.10;99.90
54140;DHT22;40046;53.254;5.900;2022-07-29T03:00:28;15.10;99.90
54140;DHT22;40046;53.254;5.900;2022-07-29T03:02:56;15.10;99.90
54140;DHT22;40046;53.254;5.900;2022-07-29T03:05:24;15.10;99.90
54140;DHT22;40046;53.254;5.900;2022-07-29T03:08:10;15.10;99.90
54140;DHT22;40046;53.254;5.900;2022-07-29T03:10:39;15.10;99.90
54140;DHT22;40046;53.254;5.900;2022-07-29T03:13:05;15.10;99.90
54140;DHT22;40046;53.254;5.900;2022-07-29T03:15:31;15.10;99.90
54140;DHT22;40046;53.254;5.900;2022-07-29T03:17:58;15.10;99.90
54140;DHT22;40046;53.254;5.900;2022-07-29T03:20:24;15.10;99.90
54140;DHT22;40046;53.254;5.900;2022-07-29T03:22:51;15.10;99.90
54140;DHT22;40046;53.254;5.900;2022-07-29T03:25:18;15.10;99.90
54140;DHT22;40046;53.254;5.900;2022-07-29T03:27:46;15.10;99.90
54140;DHT22;40046;53.254;5.900;2022-07-29T03:30:13;15.10;99.90
54140;DHT22;40046;53.254;5.900;2022-07-29T03:32:39;15.10;99.90
54140;DHT22;40046;53.254;5.900;2022-07-29T03:35:06;15.10;99.90
54140;DHT22;40046;53.254;5.900;2022-07-29T03:37:32;15.00;99.90
54140;DHT22;40046;53.254;5.900;2022-07-29T03:40:00;15.00;99.90
54140;DHT22;40046;53.254;5.900;2022-07-29T03:42:33;15.00;99.90
54140;DHT22;40046;53.254;5.900;2022-07-29T03:45:06;15.00;99.90
54140;DHT22;40046;53.254;5.900;2022-07-29T03:47:35;15.00;99.90
54140;DHT22;40046;53.254;5.900;2022-07-29T03:50:06;15.00;99.90
54140;DHT22;40046;53.254;5.900;2022-07-29T03:52:32;15.00;99.90
54140;DHT22;40046;53.254;5.900;2022-07-29T03:54:58;15.00;99.90
54140;DHT22;40046;53.254;5.900;2022-07-29T03:57:27;15.00;99.90
54140;DHT22;40046;53.254;5.900;2022-07-29T03:59:53;15.00;99.90
54140;DHT22;40046;53.254;5.900;2022-07-29T04:02:20;15.00;99.90
54140;DHT22;40046;53.254;5.900;2022-07-29T04:04:46;15.00;99.90
54140;DHT22;40046;53.254;5.900;2022-07-29T04:07:13;15.00;99.90
54140;DHT22;40046;53.254;5.900;2022-07-29T04:09:39;15.00;99.90
54140;DHT22;40046;53.254;5.900;2022-07-29T04:12:05;15.00;99.90
54140;DHT22;40046;53.254;5.900;2022-07-29T04:14:33;15.00;99.90
54140;DHT22;40046;53.254;5.900;2022-07-29T04:16:59;15.00;99.90
54140;DHT22;40046;53.254;5.900;2022-07-29T04:19:25;15.00;99.90
54140;DHT22;40046;53.254;5.900;2022-07-29T04:21:51;15.00;99.90
54140;DHT22;40046;53.254;5.900;2022-07-29T04:24:17;15.00;99.90
54140;DHT22;40046;53.254;5.900;2022-07-29T04:26:42;15.00;99.90
54140;DHT22;40046;53.254;5.900;2022-07-29T04:29:08;15.00;99.90
54140;DHT22;40046;53.254;5.900;2022-07-29T04:31:34;15.00;99.90
54140;DHT22;40046;53.254;5.900;2022-07-29T04:34:00;15.10;99.90
54140;DHT22;40046;53.254;5.900;2022-07-29T04:36:26;15.10;99.90
54140;DHT22;40046;53.254;5.900;2022-07-29T04:38:51;15.10;99.90
54140;DHT22;40046;53.254;5.900;2022-07-29T04:41:17;15.20;99.90
54140;DHT22;40046;53.254;5.900;2022-07-29T04:43:43;15.10;99.90
54140;DHT22;40046;53.254;5.900;2022-07-29T04:46:08;15.10;99.90
54140;DHT22;40046;53.254;5.900;2022-07-29T04:48:34;15.10;99.90
54140;DHT22;40046;53.254;5.900;2022-07-29T04:51:00;15.20;99.90
54140;DHT22;40046;53.254;5.900;2022-07-29T04:53:26;15.10;99.90
54140;DHT22;40046;53.254;5.900;2022-07-29T04:55:51;15.20;99.90
54140;DHT22;40046;53.254;5.900;2022-07-29T04:58:18;15.20;99.90
54140;DHT22;40046;53.254;5.900;2022-07-29T05:00:43;15.20;99.90
54140;DHT22;40046;53.254;5.900;2022-07-29T05:03:09;15.30;99.90
54140;DHT22;40046;53.254;5.900;2022-07-29T05:05:35;15.30;99.90
54140;DHT22;40046;53.254;5.900;2022-07-29T05:08:00;15.30;99.90
54140;DHT22;40046;53.254;5.900;2022-07-29T05:10:26;15.40;99.90
54140;DHT22;40046;53.254;5.900;2022-07-29T05:12:52;15.40;99.90
54140;DHT22;40046;53.254;5.900;2022-07-29T05:15:18;15.50;99.90
54140;DHT22;40046;53.254;5.900;2022-07-29T05:17:44;15.50;99.90
54140;DHT22;40046;53.254;5.900;2022-07-29T05:20:10;15.50;99.90
54140;DHT22;40046;53.254;5.900;2022-07-29T05:22:36;15.60;99.90
54140;DHT22;40046;53.254;5.900;2022-07-29T05:25:02;15.60;99.90
54140;DHT22;40046;53.254;5.900;2022-07-29T05:27:28;15.60;99.90
54140;DHT22;40046;53.254;5.900;2022-07-29T05:29:54;15.70;99.90
54140;DHT22;40046;53.254;5.900;2022-07-29T05:32:19;15.70;99.90
54140;DHT22;40046;53.254;5.900;2022-07-29T05:34:45;15.80;99.90
54140;DHT22;40046;53.254;5.900;2022-07-29T05:37:11;15.90;99.90
54140;DHT22;40046;53.254;5.900;2022-07-29T05:39:39;15.90;99.90
54140;DHT22;40046;53.254;5.900;2022-07-29T05:42:09;15.90;99.90
54140;DHT22;40046;53.254;5.900;2022-07-29T05:44:39;16.00;99.90
54140;DHT22;40046;53.254;5.900;2022-07-29T05:47:05;16.00;99.90
54140;DHT22;40046;53.254;5.900;2022-07-29T05:49:32;16.10;99.90
54140;DHT22;40046;53.254;5.900;2022-07-29T05:51:58;16.10;99.90
54140;DHT22;40046;53.254;5.900;2022-07-29T05:54:24;16.20;99.90
54140;DHT22;40046;53.254;5.900;2022-07-29T05:56:49;16.40;99.90
54140;DHT22;40046;53.254;5.900;2022-07-29T05:59:15;16.50;99.90
54140;DHT22;40046;53.254;5.900;2022-07-29T06:01:41;16.70;99.90
54140;DHT22;40046;53.254;5.900;2022-07-29T06:04:07;16.80;99.90
54140;DHT22;40046;53.254;5.900;2022-07-29T06:06:33;16.90;99.90
54140;DHT22;40046;53.254;5.900;2022-07-29T06:09:00;17.00;99.90
54140;DHT22;40046;53.254;5.900;2022-07-29T06:11:26;17.20;99.90
54140;DHT22;40046;53.254;5.900;2022-07-29T06:13:52;17.20;99.90
54140;DHT22;40046;53.254;5.900;2022-07-29T06:16:19;17.40;99.90
54140;DHT22;40046;53.254;5.900;2022-07-29T06:18:45;17.40;99.90
54140;DHT22;40046;53.254;5.900;2022-07-29T06:21:10;17.50;99.90
54140;DHT22;40046;53.254;5.900;2022-07-29T06:23:37;17.60;99.90
54140;DHT22;40046;53.254;5.900;2022-07-29T06:26:04;17.80;99.90
54140;DHT22;40046;53.254;5.900;2022-07-29T06:28:31;18.00;99.90
54140;DHT22;40046;53.254;5.900;2022-07-29T06:30:56;18.30;99.90
54140;DHT22;40046;53.254;5.900;2022-07-29T06:33:22;18.60;99.90
54140;DHT22;40046;53.254;5.900;2022-07-29T06:35:48;18.90;99.90
54140;DHT22;40046;53.254;5.900;2022-07-29T06:38:15;19.20;99.90
54140;DHT22;40046;53.254;5.900;2022-07-29T06:40:44;19.40;99.90
54140;DHT22;40046;53.254;5.900;2022-07-29T06:43:30;19.60;99.90
54140;DHT22;40046;53.254;5.900;2022-07-29T06:46:02;19.70;99.90
54140;DHT22;40046;53.254;5.900;2022-07-29T06:48:28;19.80;99.90
54140;DHT22;40046;53.254;5.900;2022-07-29T06:50:54;19.80;99.90
54140;DHT22;40046;53.254;5.900;2022-07-29T06:53:20;19.70;99.90
54140;DHT22;40046;53.254;5.900;2022-07-29T06:55:46;19.50;99.90
54140;DHT22;40046;53.254;5.900;2022-07-29T06:58:11;19.40;99.90
54140;DHT22;40046;53.254;5.900;2022-07-29T07:00:39;19.20;99.90
54140;DHT22;40046;53.254;5.900;2022-07-29T07:03:05;19.20;99.90
54140;DHT22;40046;53.254;5.900;2022-07-29T07:05:31;19.10;99.90
54140;DHT22;40046;53.254;5.900;2022-07-29T07:07:56;19.00;99.90
54140;DHT22;40046;53.254;5.900;2022-07-29T07:10:22;19.00;99.90
54140;DHT22;40046;53.254;5.900;2022-07-29T07:12:48;18.90;99.90
54140;DHT22;40046;53.254;5.900;2022-07-29T07:15:14;18.80;99.90
54140;DHT22;40046;53.254;5.900;2022-07-29T07:17:39;18.80;99.90
54140;DHT22;40046;53.254;5.900;2022-07-29T07:20:05;19.00;99.90
54140;DHT22;40046;53.254;5.900;2022-07-29T07:22:31;19.20;99.90
54140;DHT22;40046;53.254;5.900;2022-07-29T07:24:57;19.30;99.90
54140;DHT22;40046;53.254;5.900;2022-07-29T07:27:23;19.40;99.90
54140;DHT22;40046;53.254;5.900;2022-07-29T07:29:49;19.50;99.90
54140;DHT22;40046;53.254;5.900;2022-07-29T07:32:14;19.50;99.90
54140;DHT22;40046;53.254;5.900;2022-07-29T07:34:42;19.50;99.90
54140;DHT22;40046;53.254;5.900;2022-07-29T07:37:08;19.60;99.90
54140;DHT22;40046;53.254;5.900;2022-07-29T07:39:34;19.60;99.90
54140;DHT22;40046;53.254;5.900;2022-07-29T07:42:00;19.60;99.90
54140;DHT22;40046;53.254;5.900;2022-07-29T07:44:26;19.70;99.90
54140;DHT22;40046;53.254;5.900;2022-07-29T07:46:52;19.70;99.90
54140;DHT22;40046;53.254;5.900;2022-07-29T07:49:18;19.50;99.90
54140;DHT22;40046;53.254;5.900;2022-07-29T07:51:44;19.50;99.90
54140;DHT22;40046;53.254;5.900;2022-07-29T07:54:10;19.50;99.90
54140;DHT22;40046;53.254;5.900;2022-07-29T07:56:36;19.40;99.90
54140;DHT22;40046;53.254;5.900;2022-07-29T07:59:02;19.40;99.90
54140;DHT22;40046;53.254;5.900;2022-07-29T08:01:28;19.30;99.90
54140;DHT22;40046;53.254;5.900;2022-07-29T08:03:53;19.20;99.90
54140;DHT22;40046;53.254;5.900;2022-07-29T08:06:19;19.20;99.90
54140;DHT22;40046;53.254;5.900;2022-07-29T08:08:45;19.10;99.90
54140;DHT22;40046;53.254;5.900;2022-07-29T08:11:10;19.20;99.90
54140;DHT22;40046;53.254;5.900;2022-07-29T08:13:37;19.20;99.90
54140;DHT22;40046;53.254;5.900;2022-07-29T08:16:03;19.20;99.90
54140;DHT22;40046;53.254;5.900;2022-07-29T08:18:39;19.20;99.90
54140;DHT22;40046;53.254;5.900;2022-07-29T08:21:06;19.20;99.90
54140;DHT22;40046;53.254;5.900;2022-07-29T08:23:32;19.30;99.90
54140;DHT22;40046;53.254;5.900;2022-07-29T08:26:05;19.30;99.90
54140;DHT22;40046;53.254;5.900;2022-07-29T08:28:31;19.40;99.90
54140;DHT22;40046;53.254;5.900;2022-07-29T08:30:57;19.50;99.90
54140;DHT22;40046;53.254;5.900;2022-07-29T08:33:23;19.60;99.90
54140;DHT22;40046;53.254;5.900;2022-07-29T08:35:49;19.60;99.90
54140;DHT22;40046;53.254;5.900;2022-07-29T08:38:15;19.70;99.90
54140;DHT22;40046;53.254;5.900;2022-07-29T08:40:41;19.80;99.90
54140;DHT22;40046;53.254;5.900;2022-07-29T08:43:08;19.90;99.90
54140;DHT22;40046;53.254;5.900;2022-07-29T08:45:49;20.10;99.90
54140;DHT22;40046;53.254;5.900;2022-07-29T08:48:17;20.00;99.90
54140;DHT22;40046;53.254;5.900;2022-07-29T08:50:45;20.20;99.90
54140;DHT22;40046;53.254;5.900;2022-07-29T08:53:13;20.30;99.90
54140;DHT22;40046;53.254;5.900;2022-07-29T08:55:42;20.50;99.90
54140;DHT22;40046;53.254;5.900;2022-07-29T08:58:09;20.60;99.90
54140;DHT22;40046;53.254;5.900;2022-07-29T09:00:36;20.70;99.90
54140;DHT22;40046;53.254;5.900;2022-07-29T09:03:04;20.70;99.90
54140;DHT22;40046;53.254;5.900;2022-07-29T09:05:31;20.70;99.90
54140;DHT22;40046;53.254;5.900;2022-07-29T09:07:58;20.70;99.90
54140;DHT22;40046;53.254;5.900;2022-07-29T09:10:24;20.70;99.90
54140;DHT22;40046;53.254;5.900;2022-07-29T09:12:50;20.70;99.90
54140;DHT22;40046;53.254;5.900;2022-07-29T09:15:17;20.70;99.90
54140;DHT22;40046;53.254;5.900;2022-07-29T09:17:44;20.60;99.90
54140;DHT22;40046;53.254;5.900;2022-07-29T09:20:16;20.50;99.90
54140;DHT22;40046;53.254;5.900;2022-07-29T09:22:42;20.60;99.90
54140;DHT22;40046;53.254;5.900;2022-07-29T09:25:08;20.60;99.90
54140;DHT22;40046;53.254;5.900;2022-07-29T09:27:34;20.60;99.90
54140;DHT22;40046;53.254;5.900;2022-07-29T09:30:06;20.60;99.90
54140;DHT22;40046;53.254;5.900;2022-07-29T09:32:55;20.50;99.90
54140;DHT22;40046;53.254;5.900;2022-07-29T09:35:23;20.50;99.90
54140;DHT22;40046;53.254;5.900;2022-07-29T09:37:50;20.50;99.90
54140;DHT22;40046;53.254;5.900;2022-07-29T09:40:22;20.50;99.90
54140;DHT22;40046;53.254;5.900;2022-07-29T09:42:49;20.60;99.90
54140;DHT22;40046;53.254;5.900;2022-07-29T09:45:27;20.60;99.90
54140;DHT22;40046;53.254;5.900;2022-07-29T09:47:54;20.60;99.90
54140;DHT22;40046;53.254;5.900;2022-07-29T09:50:21;20.50;99.90
54140;DHT22;40046;53.254;5.900;2022-07-29T09:52:51;20.50;99.90
54140;DHT22;40046;53.254;5.900;2022-07-29T09:55:18;20.60;99.90
54140;DHT22;40046;53.254;5.900;2022-07-29T09:57:45;20.50;99.90
54140;DHT22;40046;53.254;5.900;2022-07-29T10:00:14;20.50;99.90
54140;DHT22;40046;53.254;5.900;2022-07-29T10:02:42;20.50;99.90
54140;DHT22;40046;53.254;5.900;2022-07-29T10:05:29;20.50;99.90
54140;DHT22;40046;53.254;5.900;2022-07-29T10:07:57;20.40;99.90
54140;DHT22;40046;53.254;5.900;2022-07-29T10:12:51;20.50;99.90
54140;DHT22;40046;53.254;5.900;2022-07-29T10:15:17;20.50;99.90
54140;DHT22;40046;53.254;5.900;2022-07-29T10:17:44;20.50;99.90
54140;DHT22;40046;53.254;5.900;2022-07-29T10:20:10;20.40;99.90
54140;DHT22;40046;53.254;5.900;2022-07-29T10:22:36;20.40;99.90
54140;DHT22;40046;53.254;5.900;2022-07-29T10:25:02;20.40;99.90
54140;DHT22;40046;53.254;5.900;2022-07-29T10:27:28;20.30;99.90
54140;DHT22;40046;53.254;5.900;2022-07-29T10:29:54;20.20;99.90
54140;DHT22;40046;53.254;5.900;2022-07-29T10:43:29;19.80;99.90
54140;DHT22;40046;53.254;5.900;2022-07-29T10:45:59;19.80;99.90
54140;DHT22;40046;53.254;5.900;2022-07-29T10:48:26;19.70;99.90
54140;DHT22;40046;53.254;5.900;2022-07-29T10:51:03;19.70;99.90
54140;DHT22;40046;53.254;5.900;2022-07-29T10:53:52;19.70;99.90
54140;DHT22;40046;53.254;5.900;2022-07-29T11:01:44;19.90;99.90
54140;DHT22;40046;53.254;5.900;2022-07-29T11:04:09;19.90;99.90
54140;DHT22;40046;53.254;5.900;2022-07-29T11:09:28;20.10;99.90
54140;DHT22;40046;53.254;5.900;2022-07-29T11:11:56;20.20;99.90
54140;DHT22;40046;53.254;5.900;2022-07-29T11:17:20;20.40;99.90
54140;DHT22;40046;53.254;5.900;2022-07-29T11:19:46;20.50;99.90
54140;DHT22;40046;53.254;5.900;2022-07-29T11:22:34;20.60;99.90
54140;DHT22;40046;53.254;5.900;2022-07-29T11:25:17;20.80;99.90
54140;DHT22;40046;53.254;5.900;2022-07-29T11:27:44;20.80;99.90
54140;DHT22;40046;53.254;5.900;2022-07-29T11:30:11;20.80;99.90
54140;DHT22;40046;53.254;5.900;2022-07-29T11:32:39;20.80;99.90
54140;DHT22;40046;53.254;5.900;2022-07-29T11:35:19;20.80;99.90
54140;DHT22;40046;53.254;5.900;2022-07-29T11:38:22;20.70;99.90
54140;DHT22;40046;53.254;5.900;2022-07-29T11:40:33;20.60;99.90
54140;DHT22;40046;53.254;5.900;2022-07-29T11:42:59;20.60;99.90
54140;DHT22;40046;53.254;5.900;2022-07-29T11:45:26;20.50;99.90
54140;DHT22;40046;53.254;5.900;2022-07-29T11:48:16;20.40;99.90
54140;DHT22;40046;53.254;5.900;2022-07-29T11:50:42;20.40;99.90
54140;DHT22;40046;53.254;5.900;2022-07-29T11:53:12;20.30;99.90
54140;DHT22;40046;53.254;5.900;2022-07-29T11:55:40;20.30;99.90
54140;DHT22;40046;53.254;5.900;2022-07-29T11:58:06;20.20;99.90
54140;DHT22;40046;53.254;5.900;2022-07-29T12:00:39;20.20;99.90
54140;DHT22;40046;53.254;5.900;2022-07-29T12:03:07;20.20;99.90
54140;DHT22;40046;53.254;5.900;2022-07-29T12:05:44;20.20;99.90
54140;DHT22;40046;53.254;5.900;2022-07-29T12:08:18;20.20;99.90
54140;DHT22;40046;53.254;5.900;2022-07-29T12:10:49;20.20;99.90
54140;DHT22;40046;53.254;5.900;2022-07-29T12:13:19;20.20;99.90
54140;DHT22;40046;53.254;5.900;2022-07-29T12:15:56;20.10;99.90
54140;DHT22;40046;53.254;5.900;2022-07-29T12:18:23;20.20;99.90
54140;DHT22;40046;53.254;5.900;2022-07-29T12:20:49;20.20;99.90
54140;DHT22;40046;53.254;5.900;2022-07-29T12:23:21;20.20;99.90
54140;DHT22;40046;53.254;5.900;2022-07-29T12:25:47;20.30;99.90
54140;DHT22;40046;53.254;5.900;2022-07-29T12:28:14;20.30;99.90
54140;DHT22;40046;53.254;5.900;2022-07-29T12:30:49;20.30;99.90
54140;DHT22;40046;53.254;5.900;2022-07-29T12:33:26;20.40;99.90
54140;DHT22;40046;53.254;5.900;2022-07-29T12:36:00;20.40;99.90
54140;DHT22;40046;53.254;5.900;2022-07-29T12:38:27;20.40;99.90
54140;DHT22;40046;53.254;5.900;2022-07-29T12:40:53;20.50;99.90
54140;DHT22;40046;53.254;5.900;2022-07-29T12:43:21;20.70;99.90
54140;DHT22;40046;53.254;5.900;2022-07-29T12:45:57;20.80;99.90
54140;DHT22;40046;53.254;5.900;2022-07-29T12:48:37;21.00;99.90
54140;DHT22;40046;53.254;5.900;2022-07-29T12:51:04;21.00;99.90
54140;DHT22;40046;53.254;5.900;2022-07-29T12:53:31;21.30;99.90
54140;DHT22;40046;53.254;5.900;2022-07-29T12:55:58;21.40;99.90
54140;DHT22;40046;53.254;5.900;2022-07-29T12:58:40;21.50;99.90
54140;DHT22;40046;53.254;5.900;2022-07-29T13:01:11;21.60;99.90
54140;DHT22;40046;53.254;5.900;2022-07-29T13:03:55;21.70;99.90
54140;DHT22;40046;53.254;5.900;2022-07-29T13:09:19;21.90;99.90
54140;DHT22;40046;53.254;5.900;2022-07-29T13:14:44;22.20;99.90
54140;DHT22;40046;53.254;5.900;2022-07-29T13:19:40;22.40;99.90
54140;DHT22;40046;53.254;5.900;2022-07-29T13:22:11;22.50;99.90
54140;DHT22;40046;53.254;5.900;2022-07-29T13:27:23;22.50;99.90
54140;DHT22;40046;53.254;5.900;2022-07-29T13:29:50;22.50;99.90
54140;DHT22;40046;53.254;5.900;2022-07-29T13:32:18;22.50;99.90
54140;DHT22;40046;53.254;5.900;2022-07-29T13:34:44;22.50;99.90
54140;DHT22;40046;53.254;5.900;2022-07-29T13:37:10;22.50;99.90
54140;DHT22;40046;53.254;5.900;2022-07-29T13:39:36;22.60;99.90
54140;DHT22;40046;53.254;5.900;2022-07-29T13:42:03;22.70;99.90
54140;DHT22;40046;53.254;5.900;2022-07-29T13:44:29;22.80;99.90
54140;DHT22;40046;53.254;5.900;2022-07-29T13:46:55;22.80;99.90
54140;DHT22;40046;53.254;5.900;2022-07-29T13:49:21;22.90;99.90
54140;DHT22;40046;53.254;5.900;2022-07-29T13:51:49;23.10;99.90
54140;DHT22;40046;53.254;5.900;2022-07-29T13:54:15;23.20;99.90
54140;DHT22;40046;53.254;5.900;2022-07-29T13:56:40;23.30;99.90
54140;DHT22;40046;53.254;5.900;2022-07-29T13:59:06;23.40;99.90
54140;DHT22;40046;53.254;5.900;2022-07-29T14:01:34;23.60;99.90
54140;DHT22;40046;53.254;5.900;2022-07-29T14:04:00;23.60;99.70
54140;DHT22;40046;53.254;5.900;2022-07-29T14:06:26;23.80;99.50
54140;DHT22;40046;53.254;5.900;2022-07-29T14:08:52;23.90;98.70
54140;DHT22;40046;53.254;5.900;2022-07-29T14:11:18;23.90;98.50
54140;DHT22;40046;53.254;5.900;2022-07-29T14:13:44;24.00;98.10
54140;DHT22;40046;53.254;5.900;2022-07-29T14:16:09;24.00;97.90
54140;DHT22;40046;53.254;5.900;2022-07-29T14:18:35;24.10;97.70
54140;DHT22;40046;53.254;5.900;2022-07-29T14:21:01;24.10;97.20
54140;DHT22;40046;53.254;5.900;2022-07-29T14:23:27;24.00;96.80
54140;DHT22;40046;53.254;5.900;2022-07-29T14:25:53;23.90;96.70
54140;DHT22;40046;53.254;5.900;2022-07-29T14:28:19;23.80;96.50
54140;DHT22;40046;53.254;5.900;2022-07-29T14:30:44;23.70;96.30
54140;DHT22;40046;53.254;5.900;2022-07-29T14:33:10;23.70;96.50
54140;DHT22;40046;53.254;5.900;2022-07-29T14:35:36;23.70;97.10
54140;DHT22;40046;53.254;5.900;2022-07-29T14:38:02;23.70;96.80
54140;DHT22;40046;53.254;5.900;2022-07-29T14:40:27;23.70;96.30
54140;DHT22;40046;53.254;5.900;2022-07-29T14:42:53;23.70;96.20
54140;DHT22;40046;53.254;5.900;2022-07-29T14:45:19;23.70;96.20
54140;DHT22;40046;53.254;5.900;2022-07-29T14:47:45;23.80;96.40
54140;DHT22;40046;53.254;5.900;2022-07-29T14:50:11;23.90;96.40
54140;DHT22;40046;53.254;5.900;2022-07-29T14:52:38;24.10;96.40
54140;DHT22;40046;53.254;5.900;2022-07-29T14:55:04;24.20;96.30
54140;DHT22;40046;53.254;5.900;2022-07-29T14:57:30;24.30;96.20
54140;DHT22;40046;53.254;5.900;2022-07-29T14:59:56;24.40;96.10
54140;DHT22;40046;53.254;5.900;2022-07-29T15:02:22;24.50;95.90
54140;DHT22;40046;53.254;5.900;2022-07-29T15:04:47;24.50;95.90
54140;DHT22;40046;53.254;5.900;2022-07-29T15:07:14;24.50;95.40
54140;DHT22;40046;53.254;5.900;2022-07-29T15:09:41;24.50;95.70
54140;DHT22;40046;53.254;5.900;2022-07-29T15:12:07;24.60;95.90
54140;DHT22;40046;53.254;5.900;2022-07-29T15:14:33;24.50;95.40
54140;DHT22;40046;53.254;5.900;2022-07-29T15:16:59;24.50;95.70
54140;DHT22;40046;53.254;5.900;2022-07-29T15:19:25;24.30;95.30
54140;DHT22;40046;53.254;5.900;2022-07-29T15:21:50;24.30;95.30
54140;DHT22;40046;53.254;5.900;2022-07-29T15:24:17;24.20;95.30
54140;DHT22;40046;53.254;5.900;2022-07-29T15:26:43;24.20;95.20
54140;DHT22;40046;53.254;5.900;2022-07-29T15:29:09;24.10;94.90
54140;DHT22;40046;53.254;5.900;2022-07-29T15:31:35;24.00;95.10
54140;DHT22;40046;53.254;5.900;2022-07-29T15:34:00;24.00;95.20
54140;DHT22;40046;53.254;5.900;2022-07-29T15:36:26;23.90;94.90
54140;DHT22;40046;53.254;5.900;2022-07-29T15:38:53;23.80;94.90
54140;DHT22;40046;53.254;5.900;2022-07-29T15:41:19;23.70;95.20
54140;DHT22;40046;53.254;5.900;2022-07-29T15:43:45;23.60;95.50
54140;DHT22;40046;53.254;5.900;2022-07-29T15:46:15;23.60;96.30
54140;DHT22;40046;53.254;5.900;2022-07-29T15:48:59;23.60;97.80
54140;DHT22;40046;53.254;5.900;2022-07-29T15:51:26;23.60;98.40
54140;DHT22;40046;53.254;5.900;2022-07-29T15:53:52;23.60;98.70
54140;DHT22;40046;53.254;5.900;2022-07-29T15:56:18;23.60;98.70
54140;DHT22;40046;53.254;5.900;2022-07-29T15:58:44;23.60;98.90
54140;DHT22;40046;53.254;5.900;2022-07-29T16:01:09;23.60;99.10
54140;DHT22;40046;53.254;5.900;2022-07-29T16:03:36;23.60;99.10
54140;DHT22;40046;53.254;5.900;2022-07-29T16:06:02;23.50;99.20
54140;DHT22;40046;53.254;5.900;2022-07-29T16:08:28;23.40;99.60
54140;DHT22;40046;53.254;5.900;2022-07-29T16:10:54;23.30;99.80
54140;DHT22;40046;53.254;5.900;2022-07-29T16:13:20;23.20;99.90
54140;DHT22;40046;53.254;5.900;2022-07-29T16:15:45;23.10;99.90
54140;DHT22;40046;53.254;5.900;2022-07-29T16:18:11;23.10;99.90
54140;DHT22;40046;53.254;5.900;2022-07-29T16:20:38;23.10;99.90
54140;DHT22;40046;53.254;5.900;2022-07-29T16:23:04;23.20;99.90
54140;DHT22;40046;53.254;5.900;2022-07-29T16:25:30;23.30;99.90
54140;DHT22;40046;53.254;5.900;2022-07-29T16:27:56;23.40;99.90
54140;DHT22;40046;53.254;5.900;2022-07-29T16:30:21;23.40;99.90